createdAt,value
2017-04-13T10:01:53.766Z,6916
2017-04-13T10:02:53.475Z,17120
2017-04-13T10:03:53.519Z,8440
2017-04-13T10:04:53.555Z,5572
2017-04-13T10:05:53.582Z,5356
2017-04-13T10:06:53.623Z,4972
2017-04-13T10:07:53.657Z,5444
2017-04-13T10:08:53.696Z,4708
2017-04-13T10:09:53.732Z,2952
2017-04-13T10:10:53.769Z,2644
2017-04-13T10:11:53.784Z,2808
2017-04-13T10:12:53.825Z,2676
2017-04-13T10:13:53.865Z,2428
2017-04-13T10:14:53.896Z,4056
2017-04-13T10:15:53.925Z,5724
2017-04-13T10:16:53.962Z,8004
2017-04-13T10:17:54.002Z,10308
2017-04-13T10:18:54.020Z,36224
2017-04-13T10:19:54.063Z,75104
2017-04-13T10:20:54.089Z,76576
2017-04-13T10:21:54.133Z,84640
2017-04-13T10:22:54.171Z,90272
2017-04-13T10:23:54.201Z,95168
2017-04-13T10:24:54.217Z,5240
2017-04-13T10:25:54.285Z,7648
2017-04-13T10:26:54.306Z,6324
2017-04-13T10:27:54.338Z,21024
2017-04-13T10:28:54.352Z,81216
2017-04-13T10:29:54.413Z,79232
2017-04-13T10:30:54.439Z,78080
2017-04-13T10:31:54.468Z,74784
2017-04-13T10:32:54.513Z,73152
2017-04-13T10:33:54.533Z,78848
2017-04-13T10:34:54.576Z,85600
2017-04-13T10:35:54.603Z,89536
2017-04-13T10:36:54.640Z,91872
2017-04-13T10:37:54.663Z,89344
2017-04-13T10:38:54.717Z,85568
2017-04-13T10:39:54.741Z,16320
2017-04-13T10:40:54.783Z,12116
2017-04-13T10:41:54.817Z,8800
2017-04-13T10:42:54.848Z,7692
2017-04-13T10:43:54.893Z,9180
2017-04-13T10:44:54.923Z,9724
2017-04-13T10:45:54.982Z,11068
2017-04-13T10:46:54.993Z,20864
2017-04-13T10:47:55.017Z,25120
2017-04-13T10:48:55.064Z,17664
2017-04-13T10:49:55.098Z,12128
2017-04-13T10:50:55.129Z,11240
2017-04-13T10:51:55.169Z,15104
2017-04-13T10:52:55.208Z,9464
2017-04-13T10:53:55.250Z,6752
2017-04-13T10:54:55.277Z,5868
2017-04-13T10:55:55.312Z,5056
2017-04-13T10:56:55.348Z,4456
2017-04-13T10:57:55.374Z,5292
2017-04-13T10:58:55.425Z,6800
2017-04-13T10:59:55.478Z,7292
2017-04-13T11:00:55.483Z,9496
2017-04-13T11:01:55.528Z,10028
2017-04-13T11:02:55.557Z,10972
2017-04-13T11:03:55.598Z,11268
2017-04-13T11:04:55.627Z,11664
2017-04-13T11:05:55.719Z,10200
2017-04-13T11:06:55.704Z,8972
2017-04-13T11:07:55.728Z,8796
2017-04-13T11:08:55.772Z,8624
2017-04-13T11:09:55.797Z,10348
2017-04-13T11:10:55.829Z,12468
2017-04-13T11:11:55.877Z,11908
2017-04-13T11:12:55.903Z,10824
2017-04-13T11:13:55.927Z,9276
2017-04-13T11:14:55.991Z,9644
2017-04-13T11:15:56.017Z,8824
2017-04-13T11:16:56.046Z,10732
2017-04-13T11:17:56.081Z,10992
2017-04-13T11:18:56.113Z,12060
2017-04-13T11:19:56.143Z,11588
2017-04-13T11:20:56.172Z,10100
2017-04-13T11:21:56.228Z,8496
2017-04-13T11:22:56.252Z,7224
2017-04-13T11:23:56.272Z,7496
2017-04-13T11:24:56.336Z,8488
2017-04-13T11:25:56.359Z,8172
2017-04-13T11:26:56.399Z,8116
2017-04-13T11:27:56.436Z,8328
2017-04-13T11:28:56.467Z,7812
2017-04-13T11:29:56.509Z,7884
2017-04-13T11:30:56.540Z,7864
2017-04-13T11:31:56.574Z,8160
2017-04-13T11:32:56.607Z,8508
2017-04-13T11:33:56.628Z,9112
2017-04-13T11:34:56.670Z,8996
2017-04-13T11:35:56.703Z,6600
2017-04-13T11:36:56.733Z,6560
2017-04-13T11:37:56.779Z,5728
2017-04-13T11:38:56.811Z,6256
2017-04-13T11:39:56.895Z,6676
2017-04-13T11:40:56.883Z,6884
2017-04-13T11:41:56.917Z,6860
2017-04-13T11:42:56.958Z,6476
2017-04-13T11:43:56.974Z,6168
2017-04-13T11:44:57.018Z,5312
2017-04-13T11:45:57.056Z,4660
2017-04-13T11:46:57.078Z,4508
2017-04-13T11:47:57.124Z,5516
2017-04-13T11:48:57.158Z,6904
2017-04-13T11:49:57.182Z,7104
2017-04-13T11:50:57.235Z,7400
2017-04-13T11:51:57.258Z,6672
2017-04-13T11:52:57.294Z,7952
2017-04-13T11:53:57.330Z,9532
2017-04-13T11:54:57.363Z,9836
2017-04-13T11:55:57.399Z,10392
2017-04-13T11:56:57.420Z,9728
2017-04-13T11:57:57.465Z,7988
2017-04-13T11:58:57.494Z,7044
2017-04-13T11:59:57.527Z,6520
2017-04-13T12:00:57.565Z,6116
2017-04-13T12:01:57.602Z,5736
2017-04-13T12:02:57.622Z,6692
2017-04-13T12:03:57.664Z,8188
2017-04-13T12:04:57.698Z,8540
2017-04-13T12:05:57.737Z,8408
2017-04-13T12:06:57.769Z,8580
2017-04-13T12:07:57.815Z,9020
2017-04-13T12:08:57.822Z,8504
2017-04-13T12:09:57.876Z,7708
2017-04-13T12:10:57.913Z,6840
2017-04-13T12:11:57.923Z,8428
2017-04-13T12:12:57.972Z,7844
2017-04-13T12:13:58.019Z,5308
2017-04-13T12:14:58.044Z,5744
2017-04-13T12:15:58.074Z,7588
2017-04-13T12:16:58.112Z,8020
2017-04-13T12:17:58.139Z,7184
2017-04-13T12:18:58.176Z,7380
2017-04-13T12:19:58.211Z,6124
2017-04-13T12:20:58.249Z,4848
2017-04-13T12:21:58.272Z,3436
2017-04-13T12:22:58.314Z,2348
2017-04-13T12:23:58.341Z,1716
2017-04-13T12:24:58.381Z,1356
2017-04-13T12:25:58.417Z,1112
2017-04-13T12:26:58.449Z,928
2017-04-13T12:27:58.462Z,860
2017-04-13T12:28:58.513Z,1064
2017-04-13T12:29:58.552Z,1120
2017-04-13T12:30:58.582Z,1140
2017-04-13T12:31:58.652Z,1136
2017-04-13T12:32:58.652Z,1372
2017-04-13T12:33:58.673Z,1620
2017-04-13T12:34:58.712Z,1564
2017-04-13T12:35:58.737Z,1452
2017-04-13T12:36:58.785Z,1540
2017-04-13T12:37:59.271Z,1396
2017-04-13T12:38:58.831Z,1308
2017-04-13T12:39:58.876Z,1572
2017-04-13T12:40:59.520Z,1908
2017-04-13T12:41:58.950Z,2068
2017-04-13T12:42:58.978Z,2056
2017-04-13T12:43:59.001Z,2160
2017-04-13T12:44:59.045Z,2716
2017-04-13T12:45:59.080Z,3128
2017-04-13T12:46:59.101Z,3412
2017-04-13T12:47:59.137Z,4116
2017-04-13T12:48:59.175Z,4600
2017-04-13T12:49:59.181Z,4956
2017-04-13T12:50:59.232Z,5824
2017-04-13T12:51:59.263Z,6660
2017-04-13T12:52:59.296Z,7552
2017-04-13T12:53:59.334Z,7968
2017-04-13T12:54:59.360Z,7892
2017-04-13T12:55:59.403Z,7952
2017-04-13T12:56:59.425Z,6816
2017-04-13T12:57:59.445Z,5492
2017-04-13T12:58:59.489Z,5324
2017-04-13T12:59:59.522Z,4340
2017-04-13T13:00:59.564Z,4640
2017-04-13T13:01:59.597Z,4232
2017-04-13T13:02:59.590Z,3744
2017-04-13T13:03:59.648Z,3352
2017-04-13T13:04:59.682Z,3168
2017-04-13T13:05:59.720Z,3000
2017-04-13T13:06:59.896Z,2592
2017-04-13T13:07:59.815Z,2984
2017-04-13T13:08:59.823Z,4096
2017-04-13T13:09:59.849Z,3188
2017-04-13T13:10:59.873Z,3120
2017-04-13T13:12:00.013Z,3008
2017-04-13T13:12:59.954Z,3032
2017-04-13T13:13:59.981Z,3416
2017-04-13T13:15:00.010Z,4668
2017-04-13T13:16:00.046Z,4048
2017-04-13T13:17:00.178Z,3508
2017-04-13T13:18:00.116Z,3208
2017-04-13T13:19:00.173Z,3080
2017-04-13T13:20:00.182Z,2932
2017-04-13T13:21:00.213Z,2988
2017-04-13T13:22:00.247Z,3360
2017-04-13T13:23:00.263Z,3524
2017-04-13T13:24:00.303Z,3780
2017-04-13T13:25:00.357Z,4124
2017-04-13T13:26:00.365Z,4420
2017-04-13T13:27:00.403Z,4892
2017-04-13T13:28:00.429Z,5480
2017-04-13T13:29:00.451Z,6236
2017-04-13T13:30:00.499Z,6480
2017-04-13T13:31:00.530Z,6676
2017-04-13T13:32:00.555Z,6556
2017-04-13T13:33:00.586Z,7020
2017-04-13T13:34:00.622Z,6812
2017-04-13T13:35:00.672Z,6192
2017-04-13T13:36:00.680Z,5476
2017-04-13T13:37:00.724Z,4864
2017-04-13T13:38:00.757Z,5740
2017-04-13T13:39:00.793Z,5388
2017-04-13T13:40:00.825Z,4468
2017-04-13T13:41:00.859Z,3772
2017-04-13T13:42:00.894Z,2676
2017-04-13T13:43:00.926Z,2256
2017-04-13T13:44:00.954Z,2568
2017-04-13T13:45:01.010Z,3216
2017-04-13T13:46:01.026Z,4308
2017-04-13T13:47:01.058Z,5928
2017-04-13T13:48:01.084Z,6640
2017-04-13T13:49:01.104Z,6524
2017-04-13T13:50:01.329Z,5724
2017-04-13T13:51:01.233Z,4764
2017-04-13T13:52:01.216Z,4764
2017-04-13T13:53:01.432Z,5012
2017-04-13T13:54:01.292Z,4320
2017-04-13T13:55:01.369Z,3368
2017-04-13T13:56:01.559Z,2680
2017-04-13T13:57:01.384Z,2408
2017-04-13T13:58:01.679Z,2396
2017-04-13T13:59:01.453Z,2244
2017-04-13T14:00:01.485Z,1996
2017-04-13T14:01:01.502Z,1936
2017-04-13T14:02:01.573Z,2364
2017-04-13T14:03:01.941Z,2968
2017-04-13T14:04:01.625Z,3808
2017-04-13T14:05:01.657Z,3220
2017-04-13T14:06:01.687Z,3268
2017-04-13T14:07:01.712Z,4008
2017-04-13T14:08:01.888Z,4572
2017-04-13T14:09:01.825Z,4908
2017-04-13T14:10:01.803Z,5540
2017-04-13T14:11:01.842Z,5732
2017-04-13T14:12:01.881Z,5596
2017-04-13T14:13:01.911Z,5728
2017-04-13T14:14:01.936Z,6412
2017-04-13T14:15:01.955Z,6628
2017-04-13T14:16:02.008Z,5160
2017-04-13T14:17:02.042Z,3732
2017-04-13T14:18:02.075Z,3108
2017-04-13T14:19:02.102Z,3144
2017-04-13T14:20:02.138Z,3624
2017-04-13T14:21:02.204Z,4008
2017-04-13T14:22:02.210Z,3432
2017-04-13T14:23:02.242Z,3424
2017-04-13T14:24:02.263Z,3576
2017-04-13T14:25:02.357Z,3256
2017-04-13T14:26:02.339Z,3144
2017-04-13T14:27:02.355Z,3456
2017-04-13T14:28:02.406Z,3608
2017-04-13T14:29:02.425Z,3820
2017-04-13T14:30:02.452Z,3504
2017-04-13T14:31:02.500Z,3364
2017-04-13T14:32:02.532Z,3320
2017-04-13T14:33:02.551Z,3360
2017-04-13T14:34:02.601Z,3172
2017-04-13T14:35:02.633Z,3324
2017-04-13T14:36:02.651Z,3112
2017-04-13T14:37:02.696Z,2924
2017-04-13T14:38:02.731Z,2744
2017-04-13T14:39:02.911Z,3144
2017-04-13T14:40:02.820Z,3348
2017-04-13T14:41:02.846Z,3552
2017-04-13T14:42:02.872Z,4388
2017-04-13T14:43:02.901Z,4936
2017-04-13T14:44:03.027Z,4592
2017-04-13T14:45:02.951Z,5112
2017-04-13T14:46:02.983Z,5080
2017-04-13T14:47:03.027Z,4760
2017-04-13T14:48:03.052Z,4352
2017-04-13T14:49:03.199Z,3696
2017-04-13T14:50:03.110Z,3732
2017-04-13T14:51:03.158Z,3788
2017-04-13T14:52:03.176Z,3604
2017-04-13T14:53:03.208Z,3572
2017-04-13T14:54:03.507Z,3472
2017-04-13T14:55:03.291Z,3036
2017-04-13T14:56:03.328Z,2788
2017-04-13T14:57:03.348Z,2416
2017-04-13T14:58:03.373Z,1992
2017-04-13T14:59:03.408Z,2008
2017-04-13T15:00:03.471Z,2040
2017-04-13T15:01:03.487Z,1848
2017-04-13T15:02:03.507Z,2052
2017-04-13T15:03:03.559Z,2740
2017-04-13T15:04:03.569Z,3388
2017-04-13T15:05:03.623Z,4268
2017-04-13T15:06:03.641Z,5168
2017-04-13T15:07:03.703Z,5344
2017-04-13T15:08:03.713Z,4732
2017-04-13T15:09:03.739Z,3564
2017-04-13T15:10:03.766Z,2772
2017-04-13T15:11:03.784Z,2248
2017-04-13T15:12:03.857Z,2172
2017-04-13T15:13:03.865Z,2512
2017-04-13T15:14:03.904Z,2352
2017-04-13T15:15:03.941Z,2292
2017-04-13T15:16:03.958Z,2412
2017-04-13T15:17:03.998Z,2876
2017-04-13T15:18:04.009Z,3000
2017-04-13T15:19:04.054Z,3408
2017-04-13T15:20:04.301Z,3640
2017-04-13T15:21:04.111Z,3416
2017-04-13T15:22:04.150Z,3528
2017-04-13T15:23:04.191Z,2992
2017-04-13T15:24:04.209Z,2796
2017-04-13T15:25:04.353Z,2852
2017-04-13T15:26:04.269Z,2532
2017-04-13T15:27:04.352Z,2004
2017-04-13T15:28:04.351Z,1712
2017-04-13T15:29:04.371Z,1300
2017-04-13T15:30:04.411Z,1120
2017-04-13T15:31:04.445Z,920
2017-04-13T15:32:04.518Z,844
2017-04-13T15:33:04.511Z,732
2017-04-13T15:34:04.537Z,648
2017-04-13T15:35:04.585Z,628
2017-04-13T15:36:04.594Z,580
2017-04-13T15:37:04.623Z,588
2017-04-13T15:38:04.695Z,824
2017-04-13T15:39:04.746Z,1044
2017-04-13T15:40:04.727Z,1080
2017-04-13T15:41:04.752Z,1112
2017-04-13T15:42:04.787Z,1260
2017-04-13T15:43:04.823Z,1512
2017-04-13T15:44:04.852Z,1664
2017-04-13T15:45:04.873Z,1784
2017-04-13T15:46:04.916Z,1912
2017-04-13T15:47:04.953Z,2184
2017-04-13T15:48:04.978Z,2388
2017-04-13T15:49:05.012Z,2556
2017-04-13T15:50:05.036Z,2784
2017-04-13T15:51:05.081Z,2868
2017-04-13T15:52:05.107Z,3096
2017-04-13T15:53:05.133Z,2956
2017-04-13T15:54:05.164Z,2856
2017-04-13T15:55:05.205Z,3044
2017-04-13T15:56:05.235Z,2912
2017-04-13T15:57:05.268Z,2824
2017-04-13T15:58:05.298Z,2708
2017-04-13T15:59:05.336Z,2688
2017-04-13T16:00:05.360Z,2524
2017-04-13T16:01:05.408Z,2428
2017-04-13T16:02:05.429Z,2324
2017-04-13T16:03:05.468Z,2248
2017-04-13T16:04:05.498Z,1808
2017-04-13T16:05:05.733Z,1676
2017-04-13T16:06:05.557Z,1876
2017-04-13T16:07:05.582Z,1848
2017-04-13T16:08:05.616Z,1728
2017-04-13T16:09:05.651Z,1668
2017-04-13T16:10:05.687Z,1544
2017-04-13T16:11:05.705Z,1540
2017-04-13T16:12:05.743Z,1436
2017-04-13T16:13:05.774Z,1520
2017-04-13T16:14:05.800Z,1580
2017-04-13T16:15:05.831Z,1716
2017-04-13T16:16:05.880Z,1936
2017-04-13T16:17:05.904Z,2044
2017-04-13T16:18:05.932Z,2164
2017-04-13T16:19:05.969Z,2072
2017-04-13T16:20:05.994Z,2028
2017-04-13T16:21:06.030Z,2052
2017-04-13T16:22:06.058Z,2076
2017-04-13T16:23:06.079Z,2032
2017-04-13T16:24:06.364Z,2072
2017-04-13T16:25:06.155Z,2044
2017-04-13T16:26:06.217Z,2052
2017-04-13T16:27:06.219Z,2032
2017-04-13T16:28:06.249Z,2040
2017-04-13T16:29:06.284Z,1980
2017-04-13T16:30:06.289Z,1920
2017-04-13T16:31:06.328Z,1892
2017-04-13T16:32:06.363Z,1876
2017-04-13T16:33:06.393Z,1848
2017-04-13T16:34:06.441Z,1796
2017-04-13T16:35:06.490Z,1776
2017-04-13T16:36:06.496Z,1720
2017-04-13T16:37:06.552Z,1676
2017-04-13T16:38:06.562Z,1632
2017-04-13T16:39:06.587Z,1592
2017-04-13T16:40:06.652Z,1568
2017-04-13T16:41:06.659Z,1536
2017-04-13T16:42:06.680Z,1520
2017-04-13T16:43:06.721Z,1508
2017-04-13T16:44:06.754Z,1484
2017-04-13T16:45:06.802Z,1460
2017-04-13T16:46:06.813Z,1440
2017-04-13T16:47:06.840Z,1420
2017-04-13T16:48:06.856Z,1432
2017-04-13T16:49:06.906Z,1464
2017-04-13T16:50:06.954Z,1408
2017-04-13T16:51:07.020Z,1332
2017-04-13T16:52:07.004Z,1296
2017-04-13T16:53:07.040Z,1292
2017-04-13T16:54:07.063Z,1308
2017-04-13T16:55:07.098Z,1348
2017-04-13T16:56:07.133Z,1344
2017-04-13T16:57:07.169Z,1284
2017-04-13T16:58:07.190Z,1204
2017-04-13T16:59:07.221Z,1168
2017-04-13T17:00:07.243Z,1200
2017-04-13T17:01:07.299Z,1196
2017-04-13T17:02:07.325Z,1176
2017-04-13T17:03:07.383Z,1108
2017-04-13T17:04:07.380Z,1040
2017-04-13T17:05:07.397Z,980
2017-04-13T17:06:07.437Z,956
2017-04-13T17:07:07.524Z,928
2017-04-13T17:08:07.498Z,888
2017-04-13T17:09:07.529Z,852
2017-04-13T17:10:07.571Z,820
2017-04-13T17:11:07.580Z,796
2017-04-13T17:12:07.623Z,776
2017-04-13T17:13:07.658Z,752
2017-04-13T17:14:07.685Z,740
2017-04-13T17:15:07.717Z,736
2017-04-13T17:16:07.752Z,732
2017-04-13T17:17:07.785Z,724
2017-04-13T17:18:07.816Z,708
2017-04-13T17:19:07.841Z,688
2017-04-13T17:20:07.878Z,656
2017-04-13T17:21:07.915Z,620
2017-04-13T17:22:07.937Z,596
2017-04-13T17:23:07.969Z,588
2017-04-13T17:24:08.005Z,592
2017-04-13T17:25:08.023Z,588
2017-04-13T17:26:08.062Z,588
2017-04-13T17:27:08.090Z,596
2017-04-13T17:28:08.115Z,608
2017-04-13T17:29:08.145Z,616
2017-04-13T17:30:08.176Z,612
2017-04-13T17:31:08.211Z,596
2017-04-13T17:32:08.241Z,576
2017-04-13T17:33:08.266Z,548
2017-04-13T17:34:08.311Z,524
2017-04-13T17:35:08.364Z,500
2017-04-13T17:36:08.368Z,472
2017-04-13T17:37:08.402Z,436
2017-04-13T17:38:08.432Z,404
2017-04-13T17:39:08.451Z,380
2017-04-13T17:40:08.507Z,360
2017-04-13T17:41:08.515Z,324
2017-04-13T17:42:08.541Z,292
2017-04-13T17:43:08.569Z,248
2017-04-13T17:44:08.596Z,212
2017-04-13T17:45:08.624Z,176
2017-04-13T17:46:08.671Z,148
2017-04-13T17:47:08.690Z,128
2017-04-13T17:48:08.729Z,120
2017-04-13T17:49:08.749Z,120
2017-04-13T17:50:08.790Z,120
2017-04-13T17:51:08.824Z,112
2017-04-13T17:52:08.846Z,108
2017-04-13T17:53:08.881Z,92
2017-04-13T17:54:08.915Z,88
2017-04-13T17:55:08.947Z,80
2017-04-13T17:56:08.981Z,72
2017-04-13T17:57:08.993Z,68
2017-04-13T17:58:09.039Z,56
2017-04-13T17:59:09.049Z,48
2017-04-13T18:00:09.114Z,44
2017-04-13T18:01:09.130Z,36
2017-04-13T18:02:09.162Z,36
2017-04-13T18:03:09.191Z,36
2017-04-13T18:04:09.215Z,32
2017-04-13T18:05:09.243Z,32
2017-04-13T18:06:09.295Z,32
2017-04-13T18:07:09.312Z,32
2017-04-13T18:08:09.339Z,28
2017-04-13T18:09:09.361Z,28
2017-04-13T18:10:09.525Z,28
2017-04-13T18:11:09.423Z,24
2017-04-13T18:12:09.441Z,20
2017-04-13T18:13:09.492Z,16
2017-04-13T18:14:09.516Z,16
2017-04-13T18:15:09.647Z,12
2017-04-13T18:16:09.580Z,12
2017-04-13T18:17:09.608Z,8
2017-04-13T18:18:09.639Z,8
2017-04-13T18:19:09.668Z,8
2017-04-13T18:20:09.839Z,8
2017-04-13T18:21:09.730Z,8
2017-04-13T18:22:09.762Z,4
2017-04-13T18:23:09.786Z,8
2017-04-13T18:24:09.829Z,4
2017-04-13T18:25:09.860Z,4
2017-04-13T18:26:09.883Z,4
2017-04-13T18:27:09.919Z,0
2017-04-13T18:28:09.951Z,4
2017-04-13T18:29:09.979Z,4
2017-04-13T18:30:10.015Z,4
2017-04-13T18:31:10.030Z,4
2017-04-13T18:32:10.063Z,4
2017-04-13T18:33:10.094Z,4
2017-04-13T18:34:10.129Z,0
2017-04-13T18:35:10.165Z,0
2017-04-13T18:36:10.184Z,0
2017-04-13T18:37:10.190Z,0
2017-04-13T18:38:10.241Z,0
2017-04-13T18:39:10.279Z,0
2017-04-13T18:40:10.304Z,0
2017-04-13T18:41:10.344Z,0
2017-04-13T18:42:10.369Z,0
2017-04-13T18:43:10.399Z,0
2017-04-13T18:44:10.434Z,0
2017-04-13T18:45:10.431Z,0
2017-04-13T18:46:10.492Z,0
2017-04-13T18:47:10.500Z,0
2017-04-13T18:48:10.543Z,0
2017-04-13T18:49:10.576Z,0
2017-04-13T18:50:10.614Z,0
2017-04-13T18:51:10.783Z,0
2017-04-13T18:52:10.683Z,0
2017-04-13T18:53:10.707Z,0
2017-04-13T18:54:10.731Z,0
2017-04-13T18:55:10.760Z,0
2017-04-13T18:56:10.792Z,0
2017-04-13T18:57:10.827Z,0
2017-04-13T18:58:10.880Z,0
2017-04-13T18:59:10.889Z,0
2017-04-13T19:00:10.890Z,0
2017-04-13T19:01:10.981Z,0
2017-04-13T19:02:10.971Z,0
2017-04-13T19:03:11.009Z,0
2017-04-13T19:04:11.170Z,0
2017-04-13T19:05:11.062Z,0
2017-04-13T19:06:11.088Z,0
2017-04-13T19:07:11.127Z,0
2017-04-13T19:08:11.151Z,0
2017-04-13T19:09:11.175Z,0
2017-04-13T19:10:11.187Z,0
2017-04-13T19:11:11.238Z,0
2017-04-13T19:12:11.269Z,0
2017-04-13T19:13:11.295Z,0
2017-04-13T19:14:11.315Z,0
2017-04-13T19:15:11.365Z,0
2017-04-13T19:16:11.386Z,0
2017-04-13T19:17:11.409Z,0
2017-04-13T19:18:11.446Z,0
2017-04-13T19:19:11.462Z,0
2017-04-13T19:20:11.511Z,0
2017-04-13T19:21:11.538Z,0
2017-04-13T19:22:11.567Z,0
2017-04-13T19:23:11.593Z,0
2017-04-13T19:24:11.618Z,0
2017-04-13T19:25:11.663Z,0
2017-04-13T19:26:11.676Z,0
2017-04-13T19:27:11.719Z,0
2017-04-13T19:28:11.737Z,0
2017-04-13T19:29:11.769Z,0
2017-04-13T19:30:11.824Z,0
2017-04-13T19:31:11.838Z,0
2017-04-13T19:32:11.848Z,0
2017-04-13T19:33:11.894Z,0
2017-04-13T19:34:11.886Z,0
2017-04-13T19:35:11.947Z,0
2017-04-13T19:36:11.980Z,0
2017-04-13T19:37:12.009Z,0
2017-04-13T19:38:12.033Z,0
2017-04-13T19:39:12.066Z,0
2017-04-13T19:40:12.337Z,0
2017-04-13T19:41:12.121Z,0
2017-04-13T19:42:12.138Z,0
2017-04-13T19:43:12.190Z,0
2017-04-13T19:44:12.205Z,0
2017-04-13T19:45:12.337Z,0
2017-04-13T19:46:12.283Z,0
2017-04-13T19:47:12.285Z,0
2017-04-13T19:48:12.320Z,0
2017-04-13T19:49:12.363Z,0
2017-04-13T19:50:12.485Z,0
2017-04-13T19:51:12.434Z,0
2017-04-13T19:52:12.450Z,0
2017-04-13T19:53:12.490Z,0
2017-04-13T19:54:12.512Z,0
2017-04-13T19:55:12.640Z,0
2017-04-13T19:56:12.580Z,0
2017-04-13T19:57:12.593Z,0
2017-04-13T19:58:12.635Z,0
2017-04-13T19:59:12.660Z,0
2017-04-13T20:00:12.716Z,0
2017-04-13T20:01:12.739Z,0
2017-04-13T20:02:12.742Z,0
2017-04-13T20:03:12.790Z,0
2017-04-13T20:04:12.806Z,0
2017-04-13T20:05:12.848Z,0
2017-04-13T20:06:12.869Z,0
2017-04-13T20:07:12.895Z,0
2017-04-13T20:08:12.932Z,0
2017-04-13T20:09:12.954Z,0
2017-04-13T20:10:12.989Z,0
2017-04-13T20:11:13.012Z,0
2017-04-13T20:12:13.055Z,0
2017-04-13T20:13:13.075Z,0
2017-04-13T20:14:13.111Z,0
2017-04-13T20:15:13.119Z,0
2017-04-13T20:16:13.153Z,0
2017-04-13T20:17:13.197Z,0
2017-04-13T20:18:13.225Z,0
2017-04-13T20:19:13.228Z,0
2017-04-13T20:20:13.274Z,0
2017-04-13T20:21:13.322Z,0
2017-04-13T20:22:13.343Z,0
2017-04-13T20:23:13.380Z,0
2017-04-13T20:24:13.401Z,0
2017-04-13T20:25:13.423Z,0
2017-04-13T20:26:13.568Z,0
2017-04-13T20:27:13.466Z,0
2017-04-13T20:28:13.518Z,0
2017-04-13T20:29:13.607Z,0
2017-04-13T20:30:13.585Z,0
2017-04-13T20:31:13.738Z,0
2017-04-13T20:32:13.639Z,0
2017-04-13T20:33:13.665Z,0
2017-04-13T20:34:13.706Z,0
2017-04-13T20:35:13.721Z,0
2017-04-13T20:36:14.015Z,0
2017-04-13T20:37:13.765Z,0
2017-04-13T20:38:13.820Z,0
2017-04-13T20:39:13.843Z,0
2017-04-13T20:40:13.876Z,0
2017-04-13T20:41:14.060Z,0
2017-04-13T20:42:13.941Z,0
2017-04-13T20:43:13.967Z,4
2017-04-13T20:44:13.994Z,0
2017-04-13T20:45:14.021Z,0
2017-04-13T20:46:14.056Z,0
2017-04-13T20:47:14.081Z,0
2017-04-13T20:48:14.135Z,0
2017-04-13T20:49:14.133Z,0
2017-04-13T20:50:14.172Z,0
2017-04-13T20:51:14.246Z,0
2017-04-13T20:52:14.232Z,0
2017-04-13T20:53:14.259Z,0
2017-04-13T20:54:14.272Z,0
2017-04-13T20:55:14.320Z,0
2017-04-13T20:56:14.350Z,0
2017-04-13T20:57:14.378Z,0
2017-04-13T20:58:14.376Z,0
2017-04-13T20:59:14.428Z,0
2017-04-13T21:00:14.467Z,0
2017-04-13T21:01:14.545Z,0
2017-04-13T21:02:14.533Z,0
2017-04-13T21:03:14.559Z,0
2017-04-13T21:04:14.581Z,0
2017-04-13T21:05:14.758Z,0
2017-04-13T21:06:14.627Z,0
2017-04-13T21:07:14.665Z,0
2017-04-13T21:08:14.688Z,0
2017-04-13T21:09:14.728Z,0
2017-04-13T21:10:14.867Z,0
2017-04-13T21:11:14.790Z,0
2017-04-13T21:12:14.798Z,0
2017-04-13T21:13:14.855Z,0
2017-04-13T21:14:14.858Z,0
2017-04-13T21:15:15.055Z,0
2017-04-13T21:16:14.937Z,0
2017-04-13T21:17:14.963Z,0
2017-04-13T21:18:14.982Z,0
2017-04-13T21:19:15.018Z,0
2017-04-13T21:20:15.037Z,0
2017-04-13T21:21:15.085Z,0
2017-04-13T21:22:15.111Z,0
2017-04-13T21:23:15.140Z,0
2017-04-13T21:24:15.168Z,0
2017-04-13T21:25:15.187Z,0
2017-04-13T21:26:15.226Z,0
2017-04-13T21:27:15.258Z,0
2017-04-13T21:28:15.290Z,0
2017-04-13T21:29:15.315Z,0
2017-04-13T21:30:15.338Z,0
2017-04-13T21:31:15.431Z,0
2017-04-13T21:32:15.396Z,0
2017-04-13T21:33:15.441Z,0
2017-04-13T21:34:15.510Z,0
2017-04-13T21:35:15.489Z,0
2017-04-13T21:36:15.522Z,0
2017-04-13T21:37:15.548Z,0
2017-04-13T21:38:15.582Z,0
2017-04-13T21:39:15.606Z,0
2017-04-13T21:40:15.650Z,0
2017-04-13T21:41:15.688Z,0
2017-04-13T21:42:15.702Z,0
2017-04-13T21:43:15.718Z,0
2017-04-13T21:44:15.748Z,0
2017-04-13T21:45:15.848Z,0
2017-04-13T21:46:15.801Z,0
2017-04-13T21:47:15.848Z,0
2017-04-13T21:48:15.874Z,0
2017-04-13T21:49:15.886Z,0
2017-04-13T21:50:15.919Z,0
2017-04-13T21:51:16.114Z,0
2017-04-13T21:52:16.003Z,0
2017-04-13T21:53:16.062Z,0
2017-04-13T21:54:16.042Z,0
2017-04-13T21:55:16.073Z,0
2017-04-13T21:56:16.160Z,0
2017-04-13T21:57:16.190Z,0
2017-04-13T21:58:16.172Z,0
2017-04-13T21:59:16.187Z,0
2017-04-13T22:00:16.218Z,0
2017-04-13T22:01:16.261Z,0
2017-04-13T22:02:16.290Z,0
2017-04-13T22:03:16.296Z,0
2017-04-13T22:04:16.340Z,0
2017-04-13T22:05:16.518Z,0
2017-04-13T22:06:16.403Z,0
2017-04-13T22:07:16.429Z,0
2017-04-13T22:08:16.450Z,0
2017-04-13T22:09:16.487Z,0
2017-04-13T22:10:16.647Z,0
2017-04-13T22:11:16.535Z,0
2017-04-13T22:12:16.569Z,0
2017-04-13T22:13:16.602Z,0
2017-04-13T22:14:16.631Z,0
2017-04-13T22:15:16.898Z,0
2017-04-13T22:16:16.693Z,0
2017-04-13T22:17:16.707Z,0
2017-04-13T22:18:16.741Z,0
2017-04-13T22:19:16.770Z,0
2017-04-13T22:20:16.804Z,0
2017-04-13T22:21:16.835Z,0
2017-04-13T22:22:16.862Z,0
2017-04-13T22:23:16.890Z,0
2017-04-13T22:24:16.914Z,0
2017-04-13T22:25:16.950Z,0
2017-04-13T22:26:16.986Z,0
2017-04-13T22:27:16.999Z,0
2017-04-13T22:28:17.030Z,0
2017-04-13T22:29:17.068Z,0
2017-04-13T22:30:17.089Z,0
2017-04-13T22:31:17.105Z,0
2017-04-13T22:32:17.153Z,0
2017-04-13T22:33:17.177Z,0
2017-04-13T22:34:17.206Z,0
2017-04-13T22:35:17.231Z,0
2017-04-13T22:36:17.256Z,0
2017-04-13T22:37:17.341Z,0
2017-04-13T22:38:17.310Z,0
2017-04-13T22:39:17.351Z,0
2017-04-13T22:40:17.379Z,0
2017-04-13T22:41:17.387Z,0
2017-04-13T22:42:17.473Z,0
2017-04-13T22:43:17.514Z,0
2017-04-13T22:44:17.492Z,0
2017-04-13T22:45:17.544Z,0
2017-04-13T22:46:17.658Z,0
2017-04-13T22:47:17.557Z,0
2017-04-13T22:48:17.610Z,0
2017-04-13T22:49:17.647Z,0
2017-04-13T22:50:17.707Z,0
2017-04-13T22:51:17.794Z,0
2017-04-13T22:52:17.722Z,0
2017-04-13T22:53:17.728Z,0
2017-04-13T22:54:17.776Z,0
2017-04-13T22:55:17.798Z,0
2017-04-13T22:56:17.924Z,0
2017-04-13T22:57:17.870Z,0
2017-04-13T22:58:17.890Z,0
2017-04-13T22:59:17.970Z,0
2017-04-13T23:00:17.954Z,0
2017-04-13T23:01:18.334Z,0
2017-04-13T23:02:18.005Z,0
2017-04-13T23:03:18.031Z,0
2017-04-13T23:04:18.069Z,0
2017-04-13T23:05:18.080Z,0
2017-04-13T23:06:18.122Z,0
2017-04-13T23:07:18.157Z,0
2017-04-13T23:08:18.172Z,0
2017-04-13T23:09:18.207Z,0
2017-04-13T23:10:18.228Z,0
2017-04-13T23:11:18.263Z,0
2017-04-13T23:12:18.276Z,0
2017-04-13T23:13:18.320Z,0
2017-04-13T23:14:18.328Z,0
2017-04-13T23:15:18.387Z,0
2017-04-13T23:16:18.379Z,0
2017-04-13T23:17:18.441Z,0
2017-04-13T23:18:18.461Z,0
2017-04-13T23:19:18.476Z,0
2017-04-13T23:20:18.501Z,0
2017-04-13T23:21:18.527Z,0
2017-04-13T23:22:18.584Z,0
2017-04-13T23:23:18.602Z,0
2017-04-13T23:24:18.622Z,0
2017-04-13T23:25:18.656Z,0
2017-04-13T23:26:18.682Z,0
2017-04-13T23:27:18.715Z,0
2017-04-13T23:28:18.759Z,0
2017-04-13T23:29:18.782Z,0
2017-04-13T23:30:18.790Z,0
2017-04-13T23:31:18.836Z,0
2017-04-13T23:32:18.858Z,0
2017-04-13T23:33:18.879Z,0
2017-04-13T23:34:18.919Z,0
2017-04-13T23:35:18.932Z,0
2017-04-13T23:36:18.985Z,0
2017-04-13T23:37:19.099Z,0
2017-04-13T23:38:19.014Z,0
2017-04-13T23:39:19.059Z,0
2017-04-13T23:40:19.123Z,0
2017-04-13T23:41:19.121Z,0
2017-04-13T23:42:19.238Z,0
2017-04-13T23:43:19.180Z,0
2017-04-13T23:44:19.182Z,0
2017-04-13T23:45:19.209Z,0
2017-04-13T23:46:19.246Z,0
2017-04-13T23:47:19.587Z,0
2017-04-13T23:48:19.306Z,0
2017-04-13T23:49:19.337Z,0
2017-04-13T23:50:19.365Z,0
2017-04-13T23:51:19.395Z,0
2017-04-13T23:52:19.421Z,0
2017-04-13T23:53:19.446Z,0
2017-04-13T23:54:19.465Z,0
2017-04-13T23:55:19.490Z,0
2017-04-13T23:56:19.532Z,0